Chemtrans Mabuhay — A8XX9 — position and weather

sailwx.info

Track history (hours):
 
Tides and Currents Weather Stations Pressure Air Temp Water Temp Dewpoint Dewpoint Depression Visibility Wind Speed Wind Dir Waves Ship Positions

Chemtrans Mabuhay

Last reported at 2014-Nov-11 15:19 UTC. Time now 2014-Nov-26 11:20 UTC.
Position N 30°01' W 090°45'.
Warning: this ship's position is 14 days out of date.

Length 140 m; draft 9.2 m.

Type: Tanker. MMSI: 636092180.

Date/timePositionNaut miles runAvg speedWind from/ knotsBaromVisibWave heightAir tempDewpointWater temp
2014-Nov-11 15:19N 30°01' W 090°45'10 8.1
2014-Nov-11 14:08N 30°06' W 090°55'6 7.7
2014-Nov-11 13:20N 30°07' W 091°02'8 6.6
2014-Nov-11 12:09N 30°11' W 091°09'6 0.2
2014-Nov-10 07:07N 30°17' W 091°09'58 3.3
2014-Nov-09 13:33N 29°54' W 090°07'2 0.1
2014-Nov-08 11:31N 29°55' W 090°05'0 0.0
2014-Nov-08 06:07N 29°55' W 090°05'0 0.0
2014-Nov-08 05:31N 29°55' W 090°05'0 0.0
2014-Nov-07 16:29N 29°55' W 090°05'5 5.2
2014-Nov-07 15:31N 29°56' W 089°60'  
2014-Nov-05 02:33N 29°22' W 094°48'1212.0
2014-Nov-05 01:34N 29°32' W 094°54'1111.3
2014-Nov-05 00:33N 29°42' W 095°01'5 5.1
2014-Nov-04 23:33N 29°45' W 095°06'0 0.0
2014-Nov-04 14:08N 29°45' W 095°06'0 0.0
2014-Nov-04 13:33N 29°45' W 095°06'6 6.4
2014-Nov-04 12:33N 29°42' W 094°59'1212.0
2014-Nov-04 11:33N 29°31' W 094°53'1212.3
2014-Nov-04 10:33N 29°21' W 094°46'3 0.1
2014-Nov-03 06:32N 29°21' W 094°43'10 9.6
2014-Nov-03 05:32N 29°27' W 094°51'1211.8
2014-Nov-03 04:33N 29°37' W 094°57'9 9.3
2014-Nov-03 03:33N 29°45' W 095°04'7 6.5
2014-Nov-03 02:33N 29°45' W 095°11'5 0.2
2014-Nov-02 03:31N 29°44' W 095°16'  
Track history (hours):
 
Tides and Currents Weather Stations Pressure Air Temp Water Temp Dewpoint Dewpoint Depression Visibility Wind Speed Wind Dir Waves Ship Positions

Chemtrans Mabuhay

Last reported at 2014-Nov-11 15:19 UTC. Time now 2014-Nov-26 11:20 UTC.
Position N 30°01' W 090°45'.
Warning: this ship's position is 14 days out of date.

Length 140 m; draft 9.2 m.

Type: Tanker. MMSI: 636092180.

Date/timePositionNaut miles runAvg speedWind from/ knotsBaromVisibWave heightAir tempDewpointWater temp
2014-Nov-11 15:19N 30°01' W 090°45'10 8.1
2014-Nov-11 14:08N 30°06' W 090°55'6 7.7
2014-Nov-11 13:20N 30°07' W 091°02'8 6.6
2014-Nov-11 12:09N 30°11' W 091°09'6 0.2
2014-Nov-10 07:07N 30°17' W 091°09'58 3.3
2014-Nov-09 13:33N 29°54' W 090°07'2 0.1
2014-Nov-08 11:31N 29°55' W 090°05'0 0.0
2014-Nov-08 06:07N 29°55' W 090°05'0 0.0
2014-Nov-08 05:31N 29°55' W 090°05'0 0.0
2014-Nov-07 16:29N 29°55' W 090°05'5 5.2
2014-Nov-07 15:31N 29°56' W 089°60'  
2014-Nov-05 02:33N 29°22' W 094°48'1212.0
2014-Nov-05 01:34N 29°32' W 094°54'1111.3
2014-Nov-05 00:33N 29°42' W 095°01'5 5.1
2014-Nov-04 23:33N 29°45' W 095°06'0 0.0
2014-Nov-04 14:08N 29°45' W 095°06'0 0.0
2014-Nov-04 13:33N 29°45' W 095°06'6 6.4
2014-Nov-04 12:33N 29°42' W 094°59'1212.0
2014-Nov-04 11:33N 29°31' W 094°53'1212.3
2014-Nov-04 10:33N 29°21' W 094°46'3 0.1
2014-Nov-03 06:32N 29°21' W 094°43'10 9.6
2014-Nov-03 05:32N 29°27' W 094°51'1211.8
2014-Nov-03 04:33N 29°37' W 094°57'9 9.3
2014-Nov-03 03:33N 29°45' W 095°04'7 6.5
2014-Nov-03 02:33N 29°45' W 095°11'5 0.2
2014-Nov-02 03:31N 29°44' W 095°16'  

Dump ship's entire track history